Galatia, Illinois
Current Conditions -  °F | °C
As of 10:15 PM on Friday 19 Dec 2014 (Local Time) from KHSB Reporting Station
Light Snow Light Snow  
Wind Chill: 30°   Ceiling: 2400
Heat Index: 34°   Visibility: 5mi
Dew Point: 28°   Wind: 5mph
Humidity: 80%   Direction: 110°ESE
Pressure: 30.3"   Gusts: NA
Location:  37.84°N, 88.61°W
Report Text: KHSB 200415Z AUTO 11004KT 5SM -SN BKN024 BKN028 OVC033 01/M02 A3030 RMK AO2 T00101021
Loading
Personal Weather Stations






























Interactive Weather Map New forecast layout! Learn more

10-Day Weather Forecast

Advertisements
Track Severe Weather on mobile